Time;durP1;ratioP1;P1;durP2;ratioP2;P2;SDS_P1;SDS_P2;PMS_P1;PMS_P2;Temp;Humidity;BMP_temperature;BMP_pressure;BME280_temperature;BME280_humidity;BME280_pressure;Samples;Min_cycle;Max_cycle;Signal;HPM_P1;HPM_P2
2022/07/06 00:02:13;;;;;;;42.05;38.03;;;;;;;-140.79;100.00;63287.88;5018516;28;20040;-54
2022/07/06 00:04:39;;;;;;;41.25;37.17;;;;;;;-140.79;100.00;63287.88;5018277;28;20475;-54
2022/07/06 00:07:04;;;;;;;52.60;47.17;;;;;;;-140.79;100.00;63287.88;5017108;28;20103;-54
2022/07/06 00:09:30;;;;;;;69.85;61.67;;;;;;;-140.79;100.00;63287.88;5017700;28;20029;-53
2022/07/06 00:11:55;;;;;;;63.90;57.00;;;;;;;-140.79;100.00;63287.88;5012419;28;20029;-53
2022/07/06 00:14:21;;;;;;;62.85;56.20;;;;;;;-140.79;100.00;63287.88;4972629;28;20077;-55
2022/07/06 00:16:46;;;;;;;88.93;73.03;;;;;;;-140.79;100.00;63287.88;5009598;28;20041;-54
2022/07/06 00:19:12;;;;;;;85.90;71.35;;;;;;;-140.79;100.00;63287.88;5016179;28;20112;-54
2022/07/06 00:21:37;;;;;;;67.10;59.75;;;;;;;-140.79;100.00;63287.88;5013452;28;20029;-54
2022/07/06 00:24:03;;;;;;;85.57;70.38;;;;;;;-140.79;100.00;63287.88;5016962;28;20678;-54
2022/07/06 00:26:29;;;;;;;66.82;59.67;;;;;;;-140.79;100.00;63287.88;5017484;28;20034;-54
2022/07/06 00:28:54;;;;;;;66.95;59.70;;;;;;;-140.79;100.00;63287.88;5021161;28;20057;-54
2022/07/06 00:31:20;;;;;;;72.53;63.17;;;;;;;-140.79;100.00;63287.88;5020645;28;20041;-54
2022/07/06 00:33:45;;;;;;;88.40;73.40;;;;;;;-140.79;100.00;63287.88;5019763;28;20033;-54
2022/07/06 00:36:11;;;;;;;79.47;67.38;;;;;;;-140.79;100.00;63287.88;5017665;28;20060;-55
2022/07/06 00:38:36;;;;;;;72.35;61.90;;;;;;;-140.79;100.00;63287.88;4998683;28;20033;-54
2022/07/06 00:41:01;;;;;;;91.75;73.20;;;;;;;-140.79;100.00;63287.88;5020868;28;20507;-53
2022/07/06 00:43:27;;;;;;;76.15;64.95;;;;;;;-140.79;100.00;63287.88;5021798;28;20033;-53
2022/07/06 00:45:53;;;;;;;76.00;65.47;;;;;;;-140.79;100.00;63287.88;5021129;28;20467;-55
2022/07/06 00:48:19;;;;;;;82.22;69.03;;;;;;;-140.79;100.00;63287.88;5022110;28;20025;-55
2022/07/06 00:50:45;;;;;;;83.18;70.20;;;;;;;-140.79;100.00;63287.88;5020523;28;20048;-54
2022/07/06 00:53:10;;;;;;;92.60;72.95;;;;;;;-140.79;100.00;63287.88;4997898;28;20025;-56
2022/07/06 00:55:41;;;;;;;76.10;65.72;;;;;;;-140.79;100.00;63287.88;5019472;28;20117;-58
2022/07/06 00:58:08;;;;;;;74.82;63.00;;;;;;;-140.79;100.00;63287.88;5020542;28;20053;-53
2022/07/06 01:00:33;;;;;;;68.65;59.28;;;;;;;-140.79;100.00;63287.88;5000928;28;20053;-54
2022/07/06 01:02:59;;;;;;;88.90;70.70;;;;;;;-140.79;100.00;63287.88;5018943;28;20061;-53
2022/07/06 01:05:24;;;;;;;87.18;70.53;;;;;;;-140.79;100.00;63287.88;5020353;28;20058;-52
2022/07/06 01:07:51;;;;;;;79.57;67.72;;;;;;;-140.79;100.00;63287.88;5015986;28;20532;-53
2022/07/06 01:10:17;;;;;;;67.75;60.30;;;;;;;-140.79;100.00;63287.88;4997428;28;20037;-55
2022/07/06 01:12:43;;;;;;;86.70;71.28;;;;;;;-140.79;100.00;63287.88;5018479;28;20103;-54
2022/07/06 01:15:11;;;;;;;90.15;73.15;;;;;;;-140.79;100.00;63287.88;5002704;28;20448;-60
2022/07/06 01:17:38;;;;;;;82.75;69.63;;;;;;;-140.79;100.00;63287.88;4999093;28;20240;-59
2022/07/06 01:20:14;;;;;;;83.65;70.45;;;;;;;-140.79;100.00;63287.88;5021250;28;20029;-57
2022/07/06 01:22:40;;;;;;;87.70;71.78;;;;;;;-140.79;100.00;63287.88;5019905;28;20389;-57
2022/07/06 01:25:06;;;;;;;80.68;67.65;;;;;;;-140.79;100.00;63287.88;5020299;28;20025;-57
2022/07/06 01:27:34;;;;;;;72.32;62.55;;;;;;;-140.79;100.00;63287.88;5019023;28;20029;-58
2022/07/06 01:30:00;;;;;;;87.43;71.40;;;;;;;-140.79;100.00;63287.88;5017297;28;20033;-56
2022/07/06 01:32:25;;;;;;;72.32;62.20;;;;;;;-140.79;100.00;63287.88;5020693;28;20064;-58
2022/07/06 01:34:50;;;;;;;57.10;50.97;;;;;;;-140.79;100.00;63287.88;5019235;28;20034;-58
2022/07/06 01:37:16;;;;;;;70.28;62.10;;;;;;;-140.79;100.00;63287.88;5018418;28;20036;-55
2022/07/06 01:39:41;;;;;;;70.40;62.00;;;;;;;-140.79;100.00;63287.88;5020176;28;20084;-57
2022/07/06 01:42:07;;;;;;;71.15;63.05;;;;;;;-140.79;100.00;63287.88;5017815;28;20021;-59
2022/07/06 01:44:32;;;;;;;79.50;66.22;;;;;;;-140.79;100.00;63287.88;5015999;28;20787;-53
2022/07/06 01:46:58;;;;;;;71.38;62.08;;;;;;;-140.79;100.00;63287.88;5016220;28;20435;-55
2022/07/06 01:49:23;;;;;;;91.22;75.03;;;;;;;-140.79;100.00;63287.88;5019965;28;20064;-54
2022/07/06 01:51:49;;;;;;;94.32;75.38;;;;;;;-140.79;100.00;63287.88;5020855;28;20488;-55
2022/07/06 01:54:14;;;;;;;83.30;69.57;;;;;;;-140.79;100.00;63287.88;5019450;28;20467;-56
2022/07/06 01:56:40;;;;;;;92.32;75.03;;;;;;;-140.79;100.00;63287.88;5019181;28;20038;-53
2022/07/06 01:59:05;;;;;;;75.82;65.13;;;;;;;-140.79;100.00;63287.88;4999996;28;20025;-53
2022/07/06 02:01:30;;;;;;;78.93;66.85;;;;;;;-140.79;100.00;63287.88;5020557;28;20033;-53
2022/07/06 02:03:56;;;;;;;84.13;70.28;;;;;;;-140.79;100.00;63287.88;5018436;28;20072;-53
2022/07/06 02:06:21;;;;;;;81.90;66.78;;;;;;;-140.79;100.00;63287.88;5018689;28;20551;-54
2022/07/06 02:08:47;;;;;;;83.55;67.93;;;;;;;-140.79;100.00;63287.88;5017654;28;20408;-53
2022/07/06 02:11:12;;;;;;;78.22;66.53;;;;;;;-140.79;100.00;63287.88;5019722;28;20017;-55
2022/07/06 02:13:38;;;;;;;70.72;62.15;;;;;;;-140.79;100.00;63287.88;5000917;28;20033;-55
2022/07/06 02:16:04;;;;;;;80.85;68.40;;;;;;;-140.79;100.00;63287.88;5018982;28;20025;-55
2022/07/06 02:18:29;;;;;;;80.95;67.80;;;;;;;-140.79;100.00;63287.88;5020540;28;20052;-53
2022/07/06 02:20:55;;;;;;;86.60;69.55;;;;;;;-140.79;100.00;63287.88;5017695;28;20033;-55
2022/07/06 02:23:20;;;;;;;68.75;61.20;;;;;;;-140.79;100.00;63287.88;5017249;28;20009;-54
2022/07/06 02:25:46;;;;;;;90.00;73.22;;;;;;;-140.79;100.00;63287.88;5018743;28;20040;-55
2022/07/06 02:28:11;;;;;;;82.38;68.93;;;;;;;-140.79;100.00;63287.88;5018722;28;20218;-53
2022/07/06 02:30:37;;;;;;;80.43;66.60;;;;;;;-140.79;100.00;63287.88;5018162;28;20515;-53
2022/07/06 02:33:02;;;;;;;70.18;61.83;;;;;;;-140.79;100.00;63287.88;5017306;28;20451;-53
2022/07/06 02:35:28;;;;;;;67.78;59.35;;;;;;;-140.79;100.00;63287.88;5017825;28;20127;-54
2022/07/06 02:37:53;;;;;;;60.90;54.47;;;;;;;-140.79;100.00;63287.88;5017751;28;20528;-54
2022/07/06 02:40:19;;;;;;;70.43;62.63;;;;;;;-140.79;100.00;63287.88;5020158;28;20033;-54
2022/07/06 02:42:44;;;;;;;71.38;63.33;;;;;;;-140.79;100.00;63287.88;5018454;28;20531;-54
2022/07/06 02:45:10;;;;;;;77.38;66.65;;;;;;;-140.79;100.00;63287.88;4995104;28;20497;-55
2022/07/06 02:47:37;;;;;;;62.97;56.10;;;;;;;-140.79;100.00;63287.88;5015914;28;20037;-54
2022/07/06 02:50:02;;;;;;;71.65;62.13;;;;;;;-140.79;100.00;63287.88;4997127;28;20083;-54
2022/07/06 02:52:29;;;;;;;70.28;62.63;;;;;;;-140.79;100.00;63287.88;5015219;28;20041;-53
2022/07/06 02:54:55;;;;;;;73.68;63.90;;;;;;;-140.79;100.00;63287.88;5018496;28;20385;-54
2022/07/06 02:57:20;;;;;;;68.95;60.70;;;;;;;-140.79;100.00;63287.88;5015837;28;20412;-54
2022/07/06 02:59:46;;;;;;;69.75;62.08;;;;;;;-140.79;100.00;63287.88;5016855;28;20025;-54
2022/07/06 03:02:11;;;;;;;70.60;62.15;;;;;;;-140.79;100.00;63287.88;5016921;28;20032;-55
2022/07/06 03:04:37;;;;;;;76.28;65.95;;;;;;;-140.79;100.00;63287.88;5019213;28;20033;-55
2022/07/06 03:07:03;;;;;;;80.13;68.15;;;;;;;-140.79;100.00;63287.88;5017717;28;20469;-54
2022/07/06 03:09:28;;;;;;;74.78;64.30;;;;;;;-140.79;100.00;63287.88;5016592;28;20029;-54
2022/07/06 03:11:54;;;;;;;69.78;61.88;;;;;;;-140.79;100.00;63287.88;5016906;28;20727;-54
2022/07/06 03:14:19;;;;;;;68.53;61.03;;;;;;;-140.79;100.00;63287.88;5015885;28;20017;-56
2022/07/06 03:16:44;;;;;;;61.97;54.53;;;;;;;-140.79;100.00;63287.88;4999312;28;20419;-54
2022/07/06 03:19:10;;;;;;;55.15;49.50;;;;;;;-140.79;100.00;63287.88;5018779;28;20071;-54
2022/07/06 03:21:35;;;;;;;72.50;62.78;;;;;;;-140.79;100.00;63287.88;5016511;28;20684;-55
2022/07/06 03:24:01;;;;;;;68.38;59.95;;;;;;;-140.79;100.00;63287.88;5015484;28;20429;-54
2022/07/06 03:26:26;;;;;;;89.45;72.25;;;;;;;-140.79;100.00;63287.88;5016555;28;20148;-54
2022/07/06 03:28:52;;;;;;;74.45;64.15;;;;;;;-140.79;100.00;63287.88;5016299;28;20040;-53
2022/07/06 03:31:17;;;;;;;86.53;71.80;;;;;;;-140.79;100.00;63287.88;5013866;28;21020;-53
2022/07/06 03:33:43;;;;;;;77.20;66.45;;;;;;;-140.79;100.00;63287.88;5017069;28;20033;-53
2022/07/06 03:36:08;;;;;;;70.05;61.50;;;;;;;-140.79;100.00;63287.88;5016498;28;20685;-53
2022/07/06 03:38:34;;;;;;;76.40;65.57;;;;;;;-140.79;100.00;63287.88;5016032;28;20034;-53
2022/07/06 03:41:00;;;;;;;102.68;79.53;;;;;;;-140.79;100.00;63287.88;5017418;28;20021;-53
2022/07/06 03:43:25;;;;;;;77.72;67.60;;;;;;;-140.79;100.00;63287.88;5017755;28;20107;-53
2022/07/06 03:45:51;;;;;;;86.07;71.25;;;;;;;-140.79;100.00;63287.88;5013697;28;20052;-53
2022/07/06 03:48:16;;;;;;;81.18;68.85;;;;;;;-140.79;100.00;63287.88;5016558;28;20036;-53
2022/07/06 03:50:42;;;;;;;96.85;75.43;;;;;;;-140.79;100.00;63287.88;5016681;28;20500;-53
2022/07/06 03:53:07;;;;;;;77.10;65.82;;;;;;;-140.79;100.00;63287.88;5017152;28;20021;-54
2022/07/06 03:55:33;;;;;;;95.50;75.90;;;;;;;-140.79;100.00;63287.88;5015116;28;20518;-54
2022/07/06 03:57:58;;;;;;;100.95;77.82;;;;;;;-140.79;100.00;63287.88;5017132;28;20021;-54
2022/07/06 04:00:24;;;;;;;98.40;77.05;;;;;;;-140.79;100.00;63287.88;5020053;28;20104;-52
2022/07/06 04:02:49;;;;;;;71.82;63.20;;;;;;;-140.79;100.00;63287.88;5022895;28;20097;-55
2022/07/06 04:05:15;;;;;;;88.40;71.78;;;;;;;-140.79;100.00;63287.88;5020765;28;20620;-54
2022/07/06 04:07:40;;;;;;;52.35;46.92;;;;;;;-140.79;100.00;63287.88;5020168;28;20034;-54
2022/07/06 04:10:07;;;;;;;85.30;69.97;;;;;;;-140.79;100.00;63287.88;5008146;28;20018;-54
2022/07/06 04:12:39;;;;;;;104.35;78.53;;;;;;;-140.79;100.00;63287.88;5001677;28;20116;-56
2022/07/06 04:15:05;;;;;;;108.38;81.43;;;;;;;-140.79;100.00;63287.88;4985546;28;20761;-54
2022/07/06 04:20:14;;;;;;;102.47;79.50;;;;;;;-140.79;100.00;63287.88;5007797;28;20092;-53
2022/07/06 04:22:39;;;;;;;80.10;67.43;;;;;;;-140.79;100.00;63287.88;5004388;28;20513;-53
2022/07/06 04:25:05;;;;;;;83.35;70.10;;;;;;;-140.79;100.00;63287.88;5005518;28;20041;-54
2022/07/06 04:27:31;;;;;;;95.32;76.32;;;;;;;-140.79;100.00;63287.88;4991225;28;20701;-54
2022/07/06 04:29:56;;;;;;;82.18;68.50;;;;;;;-140.79;100.00;63287.88;5016747;28;20037;-53
2022/07/06 04:32:22;;;;;;;92.65;74.00;;;;;;;-140.79;100.00;63287.88;5018767;28;20533;-53
2022/07/06 04:34:47;;;;;;;77.47;65.28;;;;;;;-140.79;100.00;63287.88;5021355;28;20434;-56
2022/07/06 04:37:13;;;;;;;67.50;60.03;;;;;;;-140.79;100.00;63287.88;4997242;28;20030;-55
2022/07/06 04:39:38;;;;;;;87.60;71.47;;;;;;;-140.79;100.00;63287.88;5012374;28;20080;-54
2022/07/06 04:42:03;;;;;;;85.80;70.43;;;;;;;-140.79;100.00;63287.88;5021483;28;20060;-55
2022/07/06 04:44:29;;;;;;;94.57;75.57;;;;;;;-140.79;100.00;63287.88;5020593;28;20033;-55
2022/07/06 04:46:54;;;;;;;100.63;78.03;;;;;;;-140.79;100.00;63287.88;5012391;28;20050;-56
2022/07/06 04:49:20;;;;;;;80.15;67.03;;;;;;;-140.79;100.00;63287.88;5018901;28;20033;-55
2022/07/06 04:51:45;;;;;;;116.07;84.38;;;;;;;-140.79;100.00;63287.88;5017706;28;20040;-55
2022/07/06 04:54:11;;;;;;;103.03;79.15;;;;;;;-140.79;100.00;63287.88;5000565;28;20018;-54
2022/07/06 04:56:36;;;;;;;111.72;82.75;;;;;;;-140.79;100.00;63287.88;5017100;28;20053;-54
2022/07/06 04:59:02;;;;;;;116.85;85.40;;;;;;;-140.79;100.00;63287.88;5020315;28;20053;-54
2022/07/06 05:01:27;;;;;;;123.65;87.05;;;;;;;-140.79;100.00;63287.88;5020358;28;20028;-54
2022/07/06 05:03:53;;;;;;;127.82;89.75;;;;;;;-140.79;100.00;63287.88;5008974;28;20034;-55
2022/07/06 05:06:19;;;;;;;120.88;87.85;;;;;;;-140.79;100.00;63287.88;5019705;28;20026;-54
2022/07/06 05:08:45;;;;;;;121.80;88.82;;;;;;;-140.79;100.00;63287.88;5016125;28;20099;-54
2022/07/06 05:11:10;;;;;;;93.47;73.20;;;;;;;-140.79;100.00;63287.88;5000835;28;20492;-54
2022/07/06 05:13:36;;;;;;;118.60;86.13;;;;;;;-140.79;100.00;63287.88;5020442;28;20034;-57
2022/07/06 05:16:01;;;;;;;114.28;84.40;;;;;;;-140.79;100.00;63287.88;5015657;28;20033;-56
2022/07/06 05:18:27;;;;;;;110.05;83.20;;;;;;;-140.79;100.00;63287.88;5017391;28;20783;-54
2022/07/06 05:20:52;;;;;;;106.32;81.60;;;;;;;-140.79;100.00;63287.88;5018218;28;20018;-57
2022/07/06 05:23:18;;;;;;;133.32;92.38;;;;;;;-140.79;100.00;63287.88;5018963;28;20021;-54
2022/07/06 05:25:43;;;;;;;99.78;77.53;;;;;;;-140.79;100.00;63287.88;5018169;28;20032;-55
2022/07/06 05:28:09;;;;;;;120.10;86.13;;;;;;;-140.79;100.00;63287.88;5018282;28;20021;-59
2022/07/06 05:30:34;;;;;;;102.40;77.80;;;;;;;-140.79;100.00;63287.88;5016734;28;20128;-54
2022/07/06 05:33:00;;;;;;;87.63;70.38;;;;;;;-140.79;100.00;63287.88;5018227;28;20040;-53
2022/07/06 05:35:25;;;;;;;91.78;72.07;;;;;;;-140.79;100.00;63287.88;5006941;28;20489;-55
2022/07/06 05:37:51;;;;;;;93.40;74.05;;;;;;;-140.79;100.00;63287.88;5017592;28;20033;-56
2022/07/06 05:40:16;;;;;;;92.22;72.20;;;;;;;-140.79;100.00;63287.88;5020224;28;20591;-55
2022/07/06 05:42:42;;;;;;;82.90;67.63;;;;;;;-140.79;100.00;63287.88;5016548;28;20179;-56
2022/07/06 05:45:07;;;;;;;97.72;76.30;;;;;;;-140.79;100.00;63287.88;5010194;28;20424;-55
2022/07/06 05:50:17;;;;;;;80.65;66.80;;;;;;;-140.79;100.00;63287.88;5019551;28;20048;-56
2022/07/06 05:52:44;;;;;;;84.57;69.22;;;;;;;-140.79;100.00;63287.88;5021061;28;20108;-54
2022/07/06 05:55:11;;;;;;;82.45;68.07;;;;;;;-140.79;100.00;63287.88;5002884;28;20025;-54
2022/07/06 05:57:36;;;;;;;73.63;62.85;;;;;;;-140.79;100.00;63287.88;5018611;28;20021;-58
2022/07/06 06:00:04;;;;;;;75.57;64.30;;;;;;;-140.79;100.00;63287.88;5021884;28;20025;-54
2022/07/06 06:02:40;;;;;;;80.20;65.07;;;;;;;-140.79;100.00;63287.88;4998551;28;20025;-55
2022/07/06 06:05:09;;;;;;;69.43;61.85;;;;;;;-140.79;100.00;63287.88;5020648;28;20075;-55
2022/07/06 06:07:35;;;;;;;91.55;72.80;;;;;;;-140.79;100.00;63287.88;5011022;28;20051;-54
2022/07/06 06:10:05;;;;;;;73.97;63.00;;;;;;;-140.79;100.00;63287.88;5012138;28;20077;-54
2022/07/06 06:12:30;;;;;;;;;;;;;;;-140.79;100.00;63287.88;5000924;28;20017;-56
2022/07/06 06:14:56;;;;;;;73.00;61.92;;;;;;;-140.79;100.00;63287.88;5016892;28;19931;-55
2022/07/06 06:17:21;;;;;;;76.20;65.20;;;;;;;-140.79;100.00;63287.88;5011134;28;20586;-54
2022/07/06 06:19:47;;;;;;;57.70;51.70;;;;;;;-140.79;100.00;63287.88;5014808;28;20037;-54
2022/07/06 06:22:13;;;;;;;68.35;57.40;;;;;;;-140.79;100.00;63287.88;5018536;28;20026;-54
2022/07/06 06:24:38;;;;;;;80.45;64.78;;;;;;;-140.79;100.00;63287.88;5020236;28;20026;-56
2022/07/06 06:27:04;;;;;;;73.30;62.17;;;;;;;-140.79;100.00;63287.88;5010681;28;20091;-55
2022/07/06 06:29:29;;;;;;;69.28;58.75;;;;;;;-140.79;100.00;63287.88;5012044;28;20030;-57
2022/07/06 06:31:55;;;;;;;70.93;59.92;;;;;;;-140.79;100.00;63287.88;5012713;28;20056;-57
2022/07/06 06:34:20;;;;;;;78.70;66.78;;;;;;;-140.79;100.00;63287.88;5015494;28;20494;-56
2022/07/06 06:36:46;;;;;;;81.47;65.82;;;;;;;-140.79;100.00;63287.88;5015031;28;20120;-60
2022/07/06 06:39:11;;;;;;;74.10;63.30;;;;;;;-140.79;100.00;63287.88;5020053;28;20025;-55
2022/07/06 06:41:37;;;;;;;77.80;64.55;;;;;;;-140.79;100.00;63287.88;5016555;28;20085;-55
2022/07/06 06:44:02;;;;;;;77.13;63.25;;;;;;;-140.79;100.00;63287.88;5006698;28;20033;-58
2022/07/06 06:46:29;;;;;;;59.50;51.25;;;;;;;-140.79;100.00;63287.88;5006577;28;20567;-54
2022/07/06 06:48:54;;;;;;;62.97;55.17;;;;;;;-140.79;100.00;63287.88;5009968;28;20041;-54
2022/07/06 06:51:20;;;;;;;56.45;50.58;;;;;;;-140.79;100.00;63287.88;5000967;28;20025;-54
2022/07/06 06:53:46;;;;;;;66.65;58.22;;;;;;;-140.79;100.00;63287.88;5007423;28;20034;-54
2022/07/06 06:56:11;;;;;;;81.13;66.22;;;;;;;-140.79;100.00;63287.88;5010694;28;20040;-54
2022/07/06 06:58:37;;;;;;;82.57;67.70;;;;;;;-140.79;100.00;63287.88;5013623;28;20041;-55
2022/07/06 07:01:02;;;;;;;80.82;65.28;;;;;;;-140.79;100.00;63287.88;5012057;28;20056;-54
2022/07/06 07:03:28;;;;;;;67.25;59.50;;;;;;;-140.79;100.00;63287.88;5006274;28;20034;-54
2022/07/06 07:05:53;;;;;;;75.55;63.58;;;;;;;-140.79;100.00;63287.88;5005310;28;20044;-54
2022/07/06 07:08:19;;;;;;;85.05;69.43;;;;;;;-140.79;100.00;63287.88;5001395;28;20041;-56
2022/07/06 07:10:44;;;;;;;88.70;71.20;;;;;;;-140.79;100.00;63287.88;5001864;28;21048;-53
2022/07/06 07:13:10;;;;;;;77.00;65.22;;;;;;;-140.79;100.00;63287.88;5000601;28;20040;-55
2022/07/06 07:15:35;;;;;;;88.85;71.10;;;;;;;-140.79;100.00;63287.88;5000166;28;20026;-53
2022/07/06 07:18:00;;;;;;;63.35;55.50;;;;;;;-140.79;100.00;63287.88;5001510;28;20626;-54
2022/07/06 07:20:27;;;;;;;74.88;60.47;;;;;;;-140.79;100.00;63287.88;5006123;28;20045;-55
2022/07/06 07:22:52;;;;;;;63.78;55.92;;;;;;;-140.79;100.00;63287.88;5002718;28;20075;-54
2022/07/06 07:25:18;;;;;;;76.70;63.03;;;;;;;-140.79;100.00;63287.88;5011756;28;20029;-54
2022/07/06 07:27:44;;;;;;;70.30;60.80;;;;;;;-140.79;100.00;63287.88;5004526;28;20110;-54
2022/07/06 07:30:09;;;;;;;77.63;63.63;;;;;;;-140.79;100.00;63287.88;4984215;28;20041;-55
2022/07/06 07:32:35;;;;;;;63.83;55.28;;;;;;;-140.79;100.00;63287.88;5005470;28;20034;-54
2022/07/06 07:35:01;;;;;;;67.03;58.58;;;;;;;-140.79;100.00;63287.88;5002854;28;20054;-54
2022/07/06 07:37:26;;;;;;;66.20;57.60;;;;;;;-140.79;100.00;63287.88;5008517;28;20029;-54
2022/07/06 07:39:52;;;;;;;79.40;68.07;;;;;;;-140.79;100.00;63287.88;5003700;28;20068;-53
2022/07/06 07:42:17;;;;;;;138.98;95.28;;;;;;;-140.79;100.00;63287.88;5006307;28;20062;-57
2022/07/06 07:44:43;;;;;;;131.00;91.90;;;;;;;-140.79;100.00;63287.88;5008653;28;20259;-54
2022/07/06 07:47:08;;;;;;;136.25;93.85;;;;;;;-140.79;100.00;63287.88;5007192;28;20025;-53
2022/07/06 07:49:34;;;;;;;124.20;88.55;;;;;;;-140.79;100.00;63287.88;5011671;28;20112;-54
2022/07/06 07:51:59;;;;;;;112.15;83.55;;;;;;;-140.79;100.00;63287.88;5014416;28;20021;-53
2022/07/06 07:54:24;;;;;;;126.32;91.20;;;;;;;-140.79;100.00;63287.88;4986082;28;20038;-55
2022/07/06 07:56:50;;;;;;;135.05;93.18;;;;;;;-140.79;100.00;63287.88;5010768;28;20049;-53
2022/07/06 07:59:15;;;;;;;131.02;91.07;;;;;;;-140.79;100.00;63287.88;5006418;28;20013;-53
2022/07/06 08:01:41;;;;;;;133.60;92.38;;;;;;;-140.79;100.00;63287.88;5010193;28;20060;-55
2022/07/06 08:04:06;;;;;;;142.52;97.13;;;;;;;-140.79;100.00;63287.88;5009819;28;20053;-54
2022/07/06 08:06:32;;;;;;;139.15;96.15;;;;;;;-140.79;100.00;63287.88;5006103;28;20468;-54
2022/07/06 08:08:57;;;;;;;132.75;93.15;;;;;;;-140.79;100.00;63287.88;5012449;28;20103;-54
2022/07/06 08:11:23;;;;;;;138.77;95.00;;;;;;;-140.79;100.00;63287.88;5013176;28;20475;-54
2022/07/06 08:13:48;;;;;;;134.13;94.13;;;;;;;-140.79;100.00;63287.88;4994485;28;20033;-53
2022/07/06 08:16:14;;;;;;;137.35;95.03;;;;;;;-140.79;100.00;63287.88;5015068;28;20036;-55
2022/07/06 08:18:39;;;;;;;131.68;93.78;;;;;;;-140.79;100.00;63287.88;5008725;28;20113;-55
2022/07/06 08:21:05;;;;;;;146.25;99.10;;;;;;;-140.79;100.00;63287.88;5005065;28;20022;-53
2022/07/06 08:23:31;;;;;;;127.25;91.30;;;;;;;-140.79;100.00;63287.88;5008456;28;20025;-53
2022/07/06 08:25:56;;;;;;;118.55;86.57;;;;;;;-140.79;100.00;63287.88;5009786;28;20116;-54
2022/07/06 08:28:22;;;;;;;115.25;85.88;;;;;;;-140.79;100.00;63287.88;5008324;28;20083;-53
2022/07/06 08:30:47;;;;;;;131.15;93.30;;;;;;;-140.79;100.00;63287.88;5011340;28;20108;-54
2022/07/06 08:33:13;;;;;;;129.25;92.82;;;;;;;-140.79;100.00;63287.88;5009624;28;20112;-53
2022/07/06 08:35:39;;;;;;;118.47;87.90;;;;;;;-140.79;100.00;63287.88;5009274;28;20037;-55
2022/07/06 08:38:04;;;;;;;138.90;95.97;;;;;;;-140.79;100.00;63287.88;5014972;28;20028;-55
2022/07/06 08:40:32;;;;;;;129.05;91.88;;;;;;;-140.79;100.00;63287.88;5017775;28;20029;-54
2022/07/06 08:42:58;;;;;;;135.48;95.32;;;;;;;-140.79;100.00;63287.88;5021613;28;20032;-54
2022/07/06 08:45:24;;;;;;;130.70;92.10;;;;;;;-140.79;100.00;63287.88;4998648;28;20102;-53
2022/07/06 08:47:50;;;;;;;131.88;92.07;;;;;;;-140.79;100.00;63287.88;4986050;28;20512;-53
2022/07/06 08:50:16;;;;;;;134.63;94.13;;;;;;;-140.79;100.00;63287.88;5020837;28;20026;-54
2022/07/06 08:52:41;;;;;;;121.75;87.32;;;;;;;-140.79;100.00;63287.88;5016892;28;21030;-53
2022/07/06 08:55:08;;;;;;;119.80;87.60;;;;;;;-140.79;100.00;63287.88;5001925;28;20036;-54
2022/07/06 08:57:34;;;;;;;129.63;93.10;;;;;;;-140.79;100.00;63287.88;4986300;28;20144;-56
2022/07/06 08:59:59;;;;;;;139.10;95.80;;;;;;;-140.79;100.00;63287.88;5021678;28;20038;-55
2022/07/06 09:02:26;;;;;;;166.93;106.07;;;;;;;-140.79;100.00;63287.88;5018012;28;20071;-55
2022/07/06 09:04:51;;;;;;;177.02;111.25;;;;;;;-140.79;100.00;63287.88;5021268;28;20555;-54
2022/07/06 09:07:17;;;;;;;98.03;75.55;;;;;;;-140.79;100.00;63287.88;4994228;28;20029;-55
2022/07/06 09:09:44;;;;;;;170.30;107.10;;;;;;;-140.79;100.00;63287.88;5015827;28;20812;-54
2022/07/06 09:12:13;;;;;;;168.80;107.75;;;;;;;-140.79;100.00;63287.88;5021925;28;20037;-55
2022/07/06 09:14:39;;;;;;;168.73;107.85;;;;;;;-140.79;100.00;63287.88;5021408;28;20507;-54
2022/07/06 09:17:05;;;;;;;190.40;115.65;;;;;;;-140.79;100.00;63287.88;5021649;28;20065;-57
2022/07/06 09:19:31;;;;;;;187.18;113.88;;;;;;;-140.79;100.00;63287.88;5020939;28;20182;-54
2022/07/06 09:21:57;;;;;;;188.35;114.60;;;;;;;-140.79;100.00;63287.88;5021037;28;20438;-56
2022/07/06 09:24:22;;;;;;;178.93;110.30;;;;;;;-140.79;100.00;63287.88;5021656;28;20033;-54
2022/07/06 09:26:48;;;;;;;193.00;116.85;;;;;;;-140.79;100.00;63287.88;4997827;28;20076;-55
2022/07/06 09:29:13;;;;;;;191.52;115.65;;;;;;;-140.79;100.00;63287.88;5002295;28;20037;-55
2022/07/06 09:31:39;;;;;;;184.90;112.45;;;;;;;-140.79;100.00;63287.88;5020391;28;20022;-54
2022/07/06 09:34:06;;;;;;;189.05;114.28;;;;;;;-140.79;100.00;63287.88;5021444;28;20026;-58
2022/07/06 09:36:48;;;;;;;166.73;106.57;;;;;;;-140.79;100.00;63287.88;5021005;28;20075;-55
2022/07/06 09:39:17;;;;;;;160.88;105.63;;;;;;;-140.79;100.00;63287.88;5021017;28;20092;-55
2022/07/06 09:41:43;;;;;;;162.52;105.00;;;;;;;-140.79;100.00;63287.88;5021646;28;20106;-56
2022/07/06 09:44:10;;;;;;;150.98;99.65;;;;;;;-140.79;100.00;63287.88;5003256;28;20060;-56
2022/07/06 09:46:42;;;;;;;176.90;110.78;;;;;;;-140.79;100.00;63287.88;5019605;28;20041;-58
2022/07/06 09:49:07;;;;;;;167.55;107.80;;;;;;;-140.79;100.00;63287.88;5003549;28;20025;-56
2022/07/06 09:51:36;;;;;;;177.55;110.75;;;;;;;-140.79;100.00;63287.88;5000847;28;20440;-61
2022/07/06 09:54:10;;;;;;;173.52;110.55;;;;;;;-140.79;100.00;63287.88;5017251;28;20350;-56
2022/07/06 09:56:42;;;;;;;189.70;115.40;;;;;;;-140.79;100.00;63287.88;5020055;28;20037;-55
2022/07/06 09:59:09;;;;;;;185.13;113.85;;;;;;;-140.79;100.00;63287.88;5020918;28;20338;-55
2022/07/06 10:01:36;;;;;;;185.23;114.18;;;;;;;-140.79;100.00;63287.88;5021001;28;20044;-57
2022/07/06 10:04:01;;;;;;;188.63;115.18;;;;;;;-140.79;100.00;63287.88;4989547;28;20029;-54
2022/07/06 10:06:27;;;;;;;172.13;110.10;;;;;;;-140.79;100.00;63287.88;5021115;28;20022;-58
2022/07/06 10:08:54;;;;;;;149.00;101.03;;;;;;;-140.79;100.00;63287.88;5021100;28;20408;-55
2022/07/06 10:11:19;;;;;;;119.13;88.78;;;;;;;-140.79;100.00;63287.88;4982086;28;20252;-54
2022/07/06 10:13:45;;;;;;;124.63;89.93;;;;;;;-140.79;100.00;63287.88;4985565;28;20491;-54
2022/07/06 10:16:10;;;;;;;129.90;91.15;;;;;;;-140.79;100.00;63287.88;4982612;28;20092;-54
2022/07/06 10:18:36;;;;;;;134.27;93.40;;;;;;;-140.79;100.00;63287.88;4985574;28;20029;-54
2022/07/06 10:21:01;;;;;;;137.73;95.07;;;;;;;-140.79;100.00;63287.88;5002298;28;20779;-54
2022/07/06 10:23:27;;;;;;;139.23;95.32;;;;;;;-140.79;100.00;63287.88;4993194;28;20029;-54
2022/07/06 10:25:52;;;;;;;149.25;99.20;;;;;;;-140.79;100.00;63287.88;4987251;28;20041;-54
2022/07/06 10:28:18;;;;;;;131.43;92.53;;;;;;;-140.79;100.00;63287.88;4994642;28;20030;-53
2022/07/06 10:30:43;;;;;;;169.90;108.30;;;;;;;-140.79;100.00;63287.88;4991990;28;20052;-54
2022/07/06 10:33:09;;;;;;;193.88;117.78;;;;;;;-140.79;100.00;63287.88;5010264;28;20613;-54
2022/07/06 10:35:34;;;;;;;196.48;117.88;;;;;;;-140.79;100.00;63287.88;4993722;28;20542;-54
2022/07/06 10:38:06;;;;;;;180.35;111.63;;;;;;;-140.79;100.00;63287.88;4990624;28;20029;-54
2022/07/06 10:43:17;;;;;;;161.93;104.60;;;;;;;-140.79;100.00;63287.88;5018543;28;20040;-54
2022/07/06 10:45:45;;;;;;;182.43;113.18;;;;;;;-140.79;100.00;63287.88;5017403;28;20439;-62
2022/07/06 10:48:11;;;;;;;98.82;77.93;;;;;;;-140.79;100.00;63287.88;5019313;28;20516;-54
2022/07/06 10:50:40;;;;;;;154.20;101.68;;;;;;;-140.79;100.00;63287.88;5017003;28;20068;-56
2022/07/06 10:53:17;;;;;;;152.23;100.60;;;;;;;-140.79;100.00;63287.88;5016173;28;20025;-54